createdAt,value
2017-09-08T00:00:14.632Z,0
2017-09-08T00:01:17.028Z,0
2017-09-08T00:02:19.431Z,0
2017-09-08T00:03:21.817Z,0
2017-09-08T00:04:24.214Z,0
2017-09-08T00:05:26.617Z,0
2017-09-08T00:06:29.010Z,0
2017-09-08T00:07:31.406Z,0
2017-09-08T00:08:33.801Z,0
2017-09-08T00:09:36.187Z,0
2017-09-08T00:10:38.585Z,0
2017-09-08T00:11:40.979Z,0
2017-09-08T00:12:43.365Z,0
2017-09-08T00:13:45.768Z,0
2017-09-08T00:14:48.160Z,0
2017-09-08T00:15:50.560Z,0
2017-09-08T00:16:52.960Z,0
2017-09-08T00:17:55.348Z,0
2017-09-08T00:18:57.743Z,0
2017-09-08T00:20:00.483Z,0
2017-09-08T00:21:03.211Z,0
2017-09-08T00:22:05.601Z,0
2017-09-08T00:23:07.991Z,0
2017-09-08T00:24:10.386Z,0
2017-09-08T00:25:12.780Z,0
2017-09-08T00:26:15.525Z,0
2017-09-08T00:27:17.913Z,0
2017-09-08T00:28:20.312Z,0
2017-09-08T00:29:22.716Z,0
2017-09-08T00:30:25.110Z,0
2017-09-08T00:31:27.499Z,0
2017-09-08T00:32:29.897Z,0
2017-09-08T00:33:32.282Z,0
2017-09-08T00:34:34.677Z,0
2017-09-08T00:35:37.069Z,0
2017-09-08T00:36:39.459Z,0
2017-09-08T00:37:41.848Z,0
2017-09-08T00:38:44.254Z,0
2017-09-08T00:39:46.644Z,0
2017-09-08T00:40:49.043Z,0
2017-09-08T00:41:51.437Z,0
2017-09-08T00:42:53.827Z,0
2017-09-08T00:43:56.230Z,0
2017-09-08T00:44:58.628Z,0
2017-09-08T00:46:01.012Z,0
2017-09-08T00:47:03.418Z,0
2017-09-08T00:48:05.812Z,0
2017-09-08T00:49:08.204Z,0
2017-09-08T00:50:10.604Z,0
2017-09-08T00:51:12.992Z,0
2017-09-08T00:52:15.379Z,0
2017-09-08T00:53:17.781Z,0
2017-09-08T00:54:20.209Z,0
2017-09-08T00:55:22.571Z,0
2017-09-08T00:56:24.958Z,0
2017-09-08T00:57:27.359Z,0
2017-09-08T00:58:29.750Z,0
2017-09-08T00:59:32.146Z,0
2017-09-08T01:00:34.544Z,0
2017-09-08T01:01:36.940Z,0
2017-09-08T01:02:39.334Z,0
2017-09-08T01:03:41.737Z,0
2017-09-08T01:04:44.476Z,0
2017-09-08T01:05:47.213Z,0
2017-09-08T01:06:49.608Z,0
2017-09-08T01:07:52.000Z,0
2017-09-08T01:08:54.398Z,0
2017-09-08T01:09:56.788Z,0
2017-09-08T01:10:59.177Z,0
2017-09-08T01:12:01.573Z,0
2017-09-08T01:13:03.964Z,0
2017-09-08T01:14:06.361Z,0
2017-09-08T01:15:09.096Z,0
2017-09-08T01:16:11.492Z,0
2017-09-08T01:17:13.881Z,0
2017-09-08T01:18:16.279Z,0
2017-09-08T01:19:18.673Z,0
2017-09-08T01:20:21.069Z,0
2017-09-08T01:21:23.463Z,0
2017-09-08T01:22:25.858Z,0
2017-09-08T01:23:28.585Z,0
2017-09-08T01:24:31.320Z,0
2017-09-08T01:25:34.053Z,0
2017-09-08T01:26:36.445Z,0
2017-09-08T01:27:38.843Z,0
2017-09-08T01:28:41.246Z,0
2017-09-08T01:29:43.634Z,0
2017-09-08T01:30:46.028Z,0
2017-09-08T01:31:48.417Z,0
2017-09-08T01:32:50.811Z,0
2017-09-08T01:33:53.201Z,0
2017-09-08T01:34:55.595Z,0
2017-09-08T01:35:57.981Z,0
2017-09-08T01:37:00.377Z,0
2017-09-08T01:38:02.776Z,0
2017-09-08T01:39:05.180Z,0
2017-09-08T01:40:07.568Z,0
2017-09-08T01:41:09.961Z,0
2017-09-08T01:42:12.695Z,0
2017-09-08T01:43:15.104Z,0
2017-09-08T01:44:17.492Z,0
2017-09-08T01:45:19.890Z,0
2017-09-08T01:46:22.282Z,0
2017-09-08T01:47:25.017Z,0
2017-09-08T01:48:27.753Z,0
2017-09-08T01:49:30.147Z,0
2017-09-08T01:50:32.533Z,0
2017-09-08T01:51:34.932Z,0
2017-09-08T01:52:37.322Z,0
2017-09-08T01:53:39.719Z,0
2017-09-08T01:54:42.107Z,0
2017-09-08T01:55:44.501Z,0
2017-09-08T01:56:46.894Z,0
2017-09-08T01:57:49.285Z,0
2017-09-08T01:58:52.012Z,0
2017-09-08T01:59:54.403Z,0
2017-09-08T02:00:56.789Z,0
2017-09-08T02:01:59.193Z,0
2017-09-08T02:03:01.592Z,0
2017-09-08T02:04:04.317Z,0
2017-09-08T02:05:06.712Z,0
2017-09-08T02:06:09.100Z,0
2017-09-08T02:07:11.498Z,0
2017-09-08T02:08:13.899Z,0
2017-09-08T02:09:16.280Z,0
2017-09-08T02:10:18.677Z,0
2017-09-08T02:11:21.073Z,0
2017-09-08T02:12:23.828Z,0
2017-09-08T02:13:26.226Z,0
2017-09-08T02:14:28.614Z,0
2017-09-08T02:15:31.001Z,0
2017-09-08T02:16:33.408Z,0
2017-09-08T02:17:35.804Z,0
2017-09-08T02:18:38.189Z,0
2017-09-08T02:19:40.581Z,0
2017-09-08T02:20:42.974Z,0
2017-09-08T02:21:45.734Z,0
2017-09-08T02:22:48.127Z,0
2017-09-08T02:23:50.529Z,0
2017-09-08T02:24:52.920Z,0
2017-09-08T02:25:55.316Z,0
2017-09-08T02:26:57.714Z,0
2017-09-08T02:28:00.092Z,0
2017-09-08T02:29:02.489Z,0
2017-09-08T02:30:04.885Z,0
2017-09-08T02:31:07.276Z,0
2017-09-08T02:32:09.673Z,0
2017-09-08T02:33:12.069Z,0
2017-09-08T02:34:14.455Z,0
2017-09-08T02:35:16.868Z,0
2017-09-08T02:36:19.263Z,0
2017-09-08T02:37:21.645Z,0
2017-09-08T02:38:24.041Z,0
2017-09-08T02:39:26.435Z,0
2017-09-08T02:40:28.832Z,0
2017-09-08T02:41:31.228Z,0
2017-09-08T02:42:33.616Z,0
2017-09-08T02:43:36.012Z,0
2017-09-08T02:44:38.407Z,0
2017-09-08T02:45:40.799Z,0
2017-09-08T02:46:43.190Z,0
2017-09-08T02:47:45.580Z,0
2017-09-08T02:48:47.971Z,0
2017-09-08T02:49:50.378Z,0
2017-09-08T02:50:52.775Z,0
2017-09-08T02:51:55.166Z,0
2017-09-08T02:52:57.560Z,0
2017-09-08T02:53:59.960Z,0
2017-09-08T02:55:02.355Z,0
2017-09-08T02:56:04.752Z,0
2017-09-08T02:57:07.144Z,0
2017-09-08T02:58:09.544Z,0
2017-09-08T02:59:11.928Z,0
2017-09-08T03:00:14.327Z,0
2017-09-08T03:01:16.718Z,0
2017-09-08T03:02:19.116Z,0
2017-09-08T03:03:21.503Z,0
2017-09-08T03:04:23.893Z,0
2017-09-08T03:05:26.286Z,0
2017-09-08T03:06:28.679Z,0
2017-09-08T03:07:31.074Z,0
2017-09-08T03:08:33.474Z,0
2017-09-08T03:09:35.867Z,0
2017-09-08T03:10:38.625Z,0
2017-09-08T03:11:41.018Z,0
2017-09-08T03:12:43.413Z,0
2017-09-08T03:13:45.798Z,0
2017-09-08T03:14:48.195Z,0
2017-09-08T03:15:50.575Z,0
2017-09-08T03:16:52.978Z,0
2017-09-08T03:17:55.367Z,0
2017-09-08T03:18:57.757Z,0
2017-09-08T03:20:00.157Z,0
2017-09-08T03:21:02.551Z,0
2017-09-08T03:22:04.939Z,0
2017-09-08T03:23:07.327Z,0
2017-09-08T03:24:09.719Z,0
2017-09-08T03:25:12.126Z,0
2017-09-08T03:26:14.860Z,0
2017-09-08T03:27:17.255Z,0
2017-09-08T03:28:19.654Z,0
2017-09-08T03:29:22.040Z,0
2017-09-08T03:30:24.439Z,0
2017-09-08T03:31:26.835Z,0
2017-09-08T03:32:29.218Z,0
2017-09-08T03:33:31.620Z,0
2017-09-08T03:34:34.009Z,0
2017-09-08T03:35:36.408Z,0
2017-09-08T03:36:38.805Z,0
2017-09-08T03:37:41.191Z,0
2017-09-08T03:38:43.579Z,0
2017-09-08T03:39:45.980Z,0
2017-09-08T03:40:48.367Z,0
2017-09-08T03:41:51.094Z,0
2017-09-08T03:42:53.493Z,0
2017-09-08T03:43:55.886Z,0
2017-09-08T03:44:58.276Z,0
2017-09-08T03:46:00.673Z,0
2017-09-08T03:47:03.059Z,0
2017-09-08T03:48:05.459Z,0
2017-09-08T03:49:07.856Z,0
2017-09-08T03:50:10.259Z,0
2017-09-08T03:51:12.648Z,0
2017-09-08T03:52:15.043Z,0
2017-09-08T03:53:17.437Z,0
2017-09-08T03:54:20.173Z,0
2017-09-08T03:55:22.566Z,0
2017-09-08T03:56:24.962Z,0
2017-09-08T03:57:27.353Z,0
2017-09-08T03:58:29.774Z,0
2017-09-08T03:59:32.141Z,0
2017-09-08T04:00:34.530Z,0
2017-09-08T04:01:36.928Z,0
2017-09-08T04:02:39.658Z,0
2017-09-08T04:03:42.048Z,0
2017-09-08T04:04:44.440Z,0
2017-09-08T04:05:46.838Z,0
2017-09-08T04:06:49.227Z,0
2017-09-08T04:07:51.622Z,0
2017-09-08T04:08:54.016Z,4
2017-09-08T04:09:56.406Z,4
2017-09-08T04:10:58.807Z,4
2017-09-08T04:12:01.200Z,4
2017-09-08T04:13:03.595Z,4
2017-09-08T04:14:05.990Z,8
2017-09-08T04:15:08.384Z,8
2017-09-08T04:16:10.781Z,8
2017-09-08T04:17:13.167Z,8
2017-09-08T04:18:15.560Z,12
2017-09-08T04:19:17.943Z,12
2017-09-08T04:20:20.342Z,12
2017-09-08T04:21:22.745Z,20
2017-09-08T04:22:25.126Z,20
2017-09-08T04:23:27.523Z,20
2017-09-08T04:24:29.912Z,20
2017-09-08T04:25:32.308Z,24
2017-09-08T04:26:34.707Z,28
2017-09-08T04:27:37.099Z,32
2017-09-08T04:28:39.489Z,36
2017-09-08T04:29:41.891Z,40
2017-09-08T04:30:44.285Z,48
2017-09-08T04:31:47.013Z,52
2017-09-08T04:32:49.405Z,52
2017-09-08T04:33:51.797Z,60
2017-09-08T04:34:54.188Z,64
2017-09-08T04:35:56.581Z,76
2017-09-08T04:36:58.970Z,80
2017-09-08T04:38:01.363Z,92
2017-09-08T04:39:03.766Z,100
2017-09-08T04:40:06.151Z,108
2017-09-08T04:41:08.551Z,108
2017-09-08T04:42:10.941Z,108
2017-09-08T04:43:13.336Z,120
2017-09-08T04:44:15.729Z,136
2017-09-08T04:45:18.120Z,152
2017-09-08T04:46:20.513Z,168
2017-09-08T04:47:22.912Z,180
2017-09-08T04:48:25.646Z,192
2017-09-08T04:49:28.727Z,208
2017-09-08T04:50:31.115Z,224
2017-09-08T04:51:33.513Z,240
2017-09-08T04:52:35.914Z,252
2017-09-08T04:53:38.298Z,264
2017-09-08T04:54:41.027Z,272
2017-09-08T04:55:43.431Z,276
2017-09-08T04:56:45.816Z,280
2017-09-08T04:57:48.212Z,284
2017-09-08T04:58:50.968Z,292
2017-09-08T04:59:53.359Z,304
2017-09-08T05:00:55.759Z,316
2017-09-08T05:01:58.161Z,332
2017-09-08T05:03:00.551Z,356
2017-09-08T05:04:03.295Z,392
2017-09-08T05:05:05.694Z,436
2017-09-08T05:06:08.081Z,480
2017-09-08T05:07:10.484Z,528
2017-09-08T05:08:12.872Z,580
2017-09-08T05:09:15.267Z,644
2017-09-08T05:10:17.667Z,716
2017-09-08T05:11:20.057Z,796
2017-09-08T05:12:22.782Z,884
2017-09-08T05:13:25.184Z,968
2017-09-08T05:14:27.565Z,1048
2017-09-08T05:15:29.964Z,1124
2017-09-08T05:16:32.698Z,1216
2017-09-08T05:17:35.091Z,1300
2017-09-08T05:18:37.489Z,1380
2017-09-08T05:19:39.881Z,1488
2017-09-08T05:20:42.281Z,1612
2017-09-08T05:21:44.681Z,1740
2017-09-08T05:22:47.079Z,1856
2017-09-08T05:23:49.469Z,1972
2017-09-08T05:24:51.862Z,2152
2017-09-08T05:25:54.250Z,2476
2017-09-08T05:26:56.652Z,2924
2017-09-08T05:27:59.041Z,3412
2017-09-08T05:29:01.432Z,3844
2017-09-08T05:30:03.826Z,4156
2017-09-08T05:31:06.221Z,4340
2017-09-08T05:32:08.620Z,4400
2017-09-08T05:33:11.352Z,4436
2017-09-08T05:34:13.741Z,4416
2017-09-08T05:35:16.140Z,4168
2017-09-08T05:36:18.539Z,3660
2017-09-08T05:37:20.933Z,3220
2017-09-08T05:38:23.335Z,2912
2017-09-08T05:39:25.730Z,2520
2017-09-08T05:40:28.116Z,2172
2017-09-08T05:41:30.512Z,1924
2017-09-08T05:42:32.905Z,1776
2017-09-08T05:43:35.295Z,1700
2017-09-08T05:44:37.693Z,1688
2017-09-08T05:45:40.079Z,1728
2017-09-08T05:46:42.813Z,1796
2017-09-08T05:47:45.233Z,1952
2017-09-08T05:48:47.622Z,2184
2017-09-08T05:49:50.015Z,2448
2017-09-08T05:50:52.403Z,2616
2017-09-08T05:51:54.797Z,2692
2017-09-08T05:52:57.533Z,2704
2017-09-08T05:53:59.924Z,2668
2017-09-08T05:55:02.324Z,2680
2017-09-08T05:56:04.712Z,2776
2017-09-08T05:57:07.110Z,2976
2017-09-08T05:58:09.504Z,3368
2017-09-08T05:59:11.904Z,3852
2017-09-08T06:00:14.292Z,4228
2017-09-08T06:01:16.689Z,4932
2017-09-08T06:02:19.080Z,5560
2017-09-08T06:03:21.474Z,5924
2017-09-08T06:04:24.207Z,6056
2017-09-08T06:05:26.595Z,5908
2017-09-08T06:06:28.982Z,5900
2017-09-08T06:07:31.726Z,5904
2017-09-08T06:08:34.119Z,5876
2017-09-08T06:09:36.515Z,5672
2017-09-08T06:10:38.911Z,5156
2017-09-08T06:11:41.297Z,4180
2017-09-08T06:12:43.700Z,3276
2017-09-08T06:13:46.091Z,2968
2017-09-08T06:14:48.485Z,3308
2017-09-08T06:15:50.876Z,3320
2017-09-08T06:16:53.272Z,2796
2017-09-08T06:17:55.661Z,2480
2017-09-08T06:18:58.061Z,2368
2017-09-08T06:20:00.447Z,2160
2017-09-08T06:21:02.841Z,2200
2017-09-08T06:22:05.235Z,3168
2017-09-08T06:23:07.624Z,3624
2017-09-08T06:24:10.017Z,4080
2017-09-08T06:25:12.409Z,4380
2017-09-08T06:26:14.803Z,4456
2017-09-08T06:27:17.201Z,4408
2017-09-08T06:28:19.591Z,4440
2017-09-08T06:29:21.990Z,4244
2017-09-08T06:30:24.377Z,3848
2017-09-08T06:31:26.781Z,3628
2017-09-08T06:32:29.170Z,5260
2017-09-08T06:33:31.566Z,6756
2017-09-08T06:34:34.298Z,7480
2017-09-08T06:35:36.701Z,6840
2017-09-08T06:36:39.098Z,6100
2017-09-08T06:37:41.481Z,4892
2017-09-08T06:38:43.875Z,5236
2017-09-08T06:39:46.271Z,5224
2017-09-08T06:40:48.664Z,4356
2017-09-08T06:41:51.060Z,3456
2017-09-08T06:42:53.453Z,2432
2017-09-08T06:43:55.840Z,2004
2017-09-08T06:44:58.241Z,2492
2017-09-08T06:46:00.633Z,3176
2017-09-08T06:47:03.021Z,3976
2017-09-08T06:48:05.420Z,3468
2017-09-08T06:49:07.817Z,2860
2017-09-08T06:50:10.202Z,3836
2017-09-08T06:51:12.595Z,5784
2017-09-08T06:52:14.993Z,5928
2017-09-08T06:53:17.383Z,5408
2017-09-08T06:54:19.772Z,4820
2017-09-08T06:55:22.510Z,5152
2017-09-08T06:56:24.907Z,6300
2017-09-08T06:57:27.303Z,8184
2017-09-08T06:58:29.696Z,7108
2017-09-08T06:59:32.082Z,4936
2017-09-08T07:00:34.482Z,3908
2017-09-08T07:01:36.873Z,3968
2017-09-08T07:02:39.263Z,4364
2017-09-08T07:03:41.661Z,5416
2017-09-08T07:04:44.050Z,5980
2017-09-08T07:05:46.447Z,5352
2017-09-08T07:06:48.837Z,5448
2017-09-08T07:07:51.231Z,8192
2017-09-08T07:08:53.627Z,5612
2017-09-08T07:09:56.017Z,5768
2017-09-08T07:10:58.423Z,5700
2017-09-08T07:12:00.808Z,6068
2017-09-08T07:13:03.200Z,4744
2017-09-08T07:14:05.591Z,5392
2017-09-08T07:15:07.985Z,7100
2017-09-08T07:16:10.380Z,8528
2017-09-08T07:17:12.775Z,6908
2017-09-08T07:18:15.501Z,7420
2017-09-08T07:19:17.901Z,6512
2017-09-08T07:20:20.291Z,6572
2017-09-08T07:21:22.684Z,6732
2017-09-08T07:22:25.082Z,6708
2017-09-08T07:23:27.478Z,7116
2017-09-08T07:24:29.874Z,6720
2017-09-08T07:25:32.267Z,7096
2017-09-08T07:26:34.667Z,8404
2017-09-08T07:27:37.069Z,8140
2017-09-08T07:28:39.461Z,7740
2017-09-08T07:29:41.850Z,7812
2017-09-08T07:30:44.246Z,7596
2017-09-08T07:31:46.637Z,8580
2017-09-08T07:32:49.044Z,8008
2017-09-08T07:33:51.424Z,7168
2017-09-08T07:34:53.822Z,6612
2017-09-08T07:35:56.212Z,6304
2017-09-08T07:36:58.606Z,6896
2017-09-08T07:38:01.004Z,5816
2017-09-08T07:39:03.733Z,5652
2017-09-08T07:40:06.130Z,5560
2017-09-08T07:41:08.525Z,4520
2017-09-08T07:42:10.910Z,5272
2017-09-08T07:43:13.311Z,6832
2017-09-08T07:44:15.699Z,7236
2017-09-08T07:45:18.096Z,6760
2017-09-08T07:46:20.488Z,6000
2017-09-08T07:47:22.886Z,5304
2017-09-08T07:48:25.278Z,5652
2017-09-08T07:49:27.671Z,5116
2017-09-08T07:50:30.062Z,4660
2017-09-08T07:51:32.469Z,5760
2017-09-08T07:52:34.860Z,5580
2017-09-08T07:53:37.256Z,5444
2017-09-08T07:54:39.647Z,5904
2017-09-08T07:55:42.037Z,8344
2017-09-08T07:56:44.436Z,9260
2017-09-08T07:57:46.839Z,6944
2017-09-08T07:58:49.560Z,7056
2017-09-08T07:59:52.295Z,8080
2017-09-08T08:00:55.028Z,7948
2017-09-08T08:01:57.417Z,7680
2017-09-08T08:02:59.815Z,9488
2017-09-08T08:04:02.212Z,9992
2017-09-08T08:05:04.944Z,9184
2017-09-08T08:06:07.342Z,8244
2017-09-08T08:07:09.745Z,8596
2017-09-08T08:08:12.123Z,13968
2017-09-08T08:09:14.517Z,11820
2017-09-08T08:10:17.250Z,11244
2017-09-08T08:11:19.645Z,12316
2017-09-08T08:12:22.042Z,13724
2017-09-08T08:13:24.434Z,14036
2017-09-08T08:14:26.825Z,11596
2017-09-08T08:15:29.224Z,9544
2017-09-08T08:16:31.619Z,7152
2017-09-08T08:17:34.009Z,8160
2017-09-08T08:18:36.410Z,6736
2017-09-08T08:19:39.151Z,7980
2017-09-08T08:20:41.536Z,8948
2017-09-08T08:21:43.930Z,6644
2017-09-08T08:22:46.681Z,8456
2017-09-08T08:23:49.072Z,7976
2017-09-08T08:24:51.472Z,9156
2017-09-08T08:25:53.859Z,10228
2017-09-08T08:26:56.253Z,8436
2017-09-08T08:27:58.649Z,6468
2017-09-08T08:29:01.384Z,5384
2017-09-08T08:30:03.769Z,4032
2017-09-08T08:31:06.170Z,5464
2017-09-08T08:32:08.559Z,5448
2017-09-08T08:33:10.951Z,6272
2017-09-08T08:34:13.689Z,5568
2017-09-08T08:35:16.086Z,5684
2017-09-08T08:36:18.481Z,5068
2017-09-08T08:37:20.881Z,4508
2017-09-08T08:38:23.276Z,3972
2017-09-08T08:39:25.670Z,4304
2017-09-08T08:40:28.072Z,5196
2017-09-08T08:41:30.450Z,6136
2017-09-08T08:42:32.844Z,7456
2017-09-08T08:43:35.244Z,7316
2017-09-08T08:44:37.632Z,7468
2017-09-08T08:45:40.366Z,6744
2017-09-08T08:46:42.757Z,6820
2017-09-08T08:47:45.158Z,6360
2017-09-08T08:48:47.877Z,5452
2017-09-08T08:49:50.277Z,4464
2017-09-08T08:50:52.671Z,4136
2017-09-08T08:51:55.062Z,4784
2017-09-08T08:52:57.464Z,4572
2017-09-08T08:53:59.854Z,4084
2017-09-08T08:55:02.574Z,4108
2017-09-08T08:56:04.972Z,3772
2017-09-08T08:57:07.365Z,4756
2017-09-08T08:58:09.752Z,4960
2017-09-08T08:59:12.147Z,5388
2017-09-08T09:00:14.537Z,6712
2017-09-08T09:01:16.937Z,5144
2017-09-08T09:02:19.338Z,3652
2017-09-08T09:03:21.726Z,3540
2017-09-08T09:04:24.117Z,3508
2017-09-08T09:05:26.516Z,3372
2017-09-08T09:06:28.903Z,3120
2017-09-08T09:07:31.297Z,2604
2017-09-08T09:08:33.686Z,2288
2017-09-08T09:09:36.076Z,2672
2017-09-08T09:10:38.471Z,3220
2017-09-08T09:11:40.867Z,3896
2017-09-08T09:12:43.256Z,5404
2017-09-08T09:13:45.654Z,5964
2017-09-08T09:14:48.052Z,7204
2017-09-08T09:15:50.449Z,5892
2017-09-08T09:16:52.837Z,8320
2017-09-08T09:17:55.575Z,9128
2017-09-08T09:18:57.978Z,6556
2017-09-08T09:20:00.368Z,9096
2017-09-08T09:21:02.759Z,8608
2017-09-08T09:22:05.166Z,7220
2017-09-08T09:23:07.556Z,5884
2017-09-08T09:24:09.952Z,6140
2017-09-08T09:25:12.348Z,6308
2017-09-08T09:26:14.738Z,6396
2017-09-08T09:27:17.134Z,5828
2017-09-08T09:28:19.537Z,6360
2017-09-08T09:29:21.921Z,8404
2017-09-08T09:30:24.314Z,6328
2017-09-08T09:31:26.716Z,8472
2017-09-08T09:32:29.442Z,9256
2017-09-08T09:33:31.845Z,10248
2017-09-08T09:34:34.238Z,10172
2017-09-08T09:35:36.628Z,11560
2017-09-08T09:36:39.026Z,13776
2017-09-08T09:37:41.762Z,15396
2017-09-08T09:38:44.147Z,15184
2017-09-08T09:39:46.553Z,14884
2017-09-08T09:40:48.937Z,14076
2017-09-08T09:41:51.334Z,14596
2017-09-08T09:42:54.075Z,14908
2017-09-08T09:43:56.467Z,16412
2017-09-08T09:44:58.863Z,17448
2017-09-08T09:46:01.262Z,15952
2017-09-08T09:47:04.001Z,15388
2017-09-08T09:48:06.398Z,12520
2017-09-08T09:49:08.795Z,13700
2017-09-08T09:50:11.176Z,15824
2017-09-08T09:51:13.574Z,14760
2017-09-08T09:52:16.305Z,13064
2017-09-08T09:53:18.707Z,12328
2017-09-08T09:54:21.096Z,12844
2017-09-08T09:55:23.485Z,11760
2017-09-08T09:56:25.882Z,13340
2017-09-08T09:57:28.282Z,12860
2017-09-08T09:58:30.677Z,11884
2017-09-08T09:59:33.073Z,13868
2017-09-08T10:00:35.462Z,13360
2017-09-08T10:01:37.862Z,13176
2017-09-08T10:02:40.620Z,13804
2017-09-08T10:03:43.008Z,11064
2017-09-08T10:04:45.404Z,10816
2017-09-08T10:05:47.796Z,8620
2017-09-08T10:06:50.520Z,9876
2017-09-08T10:07:52.918Z,9472
2017-09-08T10:08:55.312Z,7564
2017-09-08T10:09:57.700Z,7680
2017-09-08T10:11:00.098Z,11652
2017-09-08T10:12:02.488Z,11940
2017-09-08T10:13:05.218Z,11816
2017-09-08T10:14:07.625Z,12284
2017-09-08T10:15:10.016Z,11204
2017-09-08T10:16:12.411Z,12728
2017-09-08T10:17:14.803Z,11760
2017-09-08T10:18:17.194Z,11240
2017-09-08T10:19:19.593Z,11216
2017-09-08T10:20:21.985Z,11548
2017-09-08T10:21:24.375Z,11676
2017-09-08T10:22:26.769Z,11004
2017-09-08T10:23:29.158Z,10260
2017-09-08T10:24:31.552Z,10696
2017-09-08T10:25:33.949Z,8500
2017-09-08T10:26:36.333Z,7108
2017-09-08T10:27:38.737Z,7316
2017-09-08T10:28:41.136Z,8156
2017-09-08T10:29:43.533Z,9700
2017-09-08T10:30:45.924Z,8644
2017-09-08T10:31:48.317Z,9924
2017-09-08T10:32:50.712Z,10640
2017-09-08T10:33:53.108Z,10568
2017-09-08T10:34:55.504Z,11124
2017-09-08T10:35:57.901Z,10984
2017-09-08T10:37:00.285Z,11788
2017-09-08T10:38:02.689Z,10644
2017-09-08T10:39:05.073Z,10308
2017-09-08T10:40:07.473Z,13080
2017-09-08T10:41:09.865Z,15848
2017-09-08T10:42:12.256Z,14364
2017-09-08T10:43:14.653Z,12476
2017-09-08T10:44:17.048Z,10512
2017-09-08T10:45:19.443Z,8916
2017-09-08T10:46:21.833Z,9412
2017-09-08T10:47:24.229Z,8572
2017-09-08T10:48:26.626Z,8960
2017-09-08T10:49:29.016Z,9364
2017-09-08T10:50:31.414Z,10552
2017-09-08T10:51:33.809Z,10492
2017-09-08T10:52:36.203Z,9460
2017-09-08T10:53:38.942Z,8616
2017-09-08T10:54:41.334Z,9452
2017-09-08T10:55:43.733Z,9540
2017-09-08T10:56:46.125Z,8936
2017-09-08T10:57:48.523Z,8672
2017-09-08T10:58:50.909Z,9604
2017-09-08T10:59:53.313Z,11100
2017-09-08T11:00:55.703Z,11200
2017-09-08T11:01:58.102Z,9972
2017-09-08T11:03:00.504Z,8480
2017-09-08T11:04:02.887Z,8344
2017-09-08T11:05:05.288Z,7564
2017-09-08T11:06:07.690Z,8432
2017-09-08T11:07:10.087Z,8304
2017-09-08T11:08:12.483Z,9052
2017-09-08T11:09:14.877Z,9760
2017-09-08T11:10:17.269Z,10340
2017-09-08T11:11:19.675Z,11288
2017-09-08T11:12:22.071Z,11832
2017-09-08T11:13:24.459Z,13548
2017-09-08T11:14:27.194Z,14728
2017-09-08T11:15:29.590Z,17584
2017-09-08T11:16:31.986Z,15980
2017-09-08T11:17:34.376Z,16284
2017-09-08T11:18:37.111Z,18416
2017-09-08T11:19:39.501Z,17328
2017-09-08T11:20:41.896Z,22368
2017-09-08T11:21:44.289Z,17952
2017-09-08T11:22:46.689Z,17528
2017-09-08T11:23:49.083Z,13632
2017-09-08T11:24:51.482Z,10132
2017-09-08T11:25:53.866Z,8680
2017-09-08T11:26:56.260Z,9288
2017-09-08T11:27:58.661Z,8508
2017-09-08T11:29:01.054Z,8512
2017-09-08T11:30:03.455Z,8408
2017-09-08T11:31:06.191Z,10336
2017-09-08T11:32:08.589Z,10916
2017-09-08T11:33:10.975Z,10184
2017-09-08T11:34:13.370Z,8116
2017-09-08T11:35:16.096Z,9620
2017-09-08T11:36:18.489Z,8380
2017-09-08T11:37:21.237Z,8648
2017-09-08T11:38:23.626Z,9988
2017-09-08T11:39:26.359Z,9308
2017-09-08T11:40:28.756Z,9620
2017-09-08T11:41:31.152Z,10596
2017-09-08T11:42:33.549Z,11544
2017-09-08T11:43:35.947Z,16096
2017-09-08T11:44:38.337Z,16440
2017-09-08T11:45:40.742Z,13808
2017-09-08T11:46:43.189Z,12812
2017-09-08T11:47:45.583Z,10996
2017-09-08T11:48:48.316Z,10368
2017-09-08T11:49:50.722Z,11184
2017-09-08T11:50:53.115Z,10684
2017-09-08T11:51:55.559Z,10476
2017-09-08T11:52:57.951Z,10352
2017-09-08T11:54:00.347Z,11820
2017-09-08T11:55:02.748Z,9172
2017-09-08T11:56:05.134Z,8536
2017-09-08T11:57:07.530Z,8720
2017-09-08T11:58:09.918Z,8300
2017-09-08T11:59:12.686Z,7316
2017-09-08T12:00:15.075Z,7444
2017-09-08T12:01:17.485Z,9640
2017-09-08T12:02:19.876Z,11304
2017-09-08T12:03:22.269Z,9584
2017-09-08T12:04:24.671Z,7788
2017-09-08T12:05:27.057Z,5976
2017-09-08T12:06:29.457Z,5120
2017-09-08T12:07:31.854Z,4540
2017-09-08T12:08:34.237Z,3888
2017-09-08T12:09:36.638Z,4096
2017-09-08T12:10:39.029Z,3936
2017-09-08T12:11:41.428Z,4640
2017-09-08T12:12:44.159Z,5056
2017-09-08T12:13:46.557Z,4872
2017-09-08T12:14:48.951Z,3708
2017-09-08T12:15:51.347Z,3752
2017-09-08T12:16:53.742Z,4064
2017-09-08T12:17:56.145Z,4376
2017-09-08T12:18:58.536Z,4552
2017-09-08T12:20:00.920Z,4648
2017-09-08T12:21:03.679Z,4384
2017-09-08T12:22:06.078Z,3868
2017-09-08T12:23:08.470Z,3832
2017-09-08T12:24:11.228Z,3464
2017-09-08T12:25:13.615Z,3276
2017-09-08T12:26:16.001Z,3096
2017-09-08T12:27:18.408Z,3296
2017-09-08T12:28:20.798Z,3668
2017-09-08T12:29:23.192Z,3944
2017-09-08T12:30:25.588Z,3836
2017-09-08T12:31:27.980Z,4548
2017-09-08T12:32:30.389Z,5684
2017-09-08T12:33:32.783Z,6132
2017-09-08T12:34:35.172Z,6948
2017-09-08T12:35:37.569Z,6136
2017-09-08T12:36:39.961Z,5792
2017-09-08T12:37:42.695Z,5296
2017-09-08T12:38:45.084Z,5704
2017-09-08T12:39:47.472Z,6372
2017-09-08T12:40:49.870Z,6684
2017-09-08T12:41:52.271Z,6820
2017-09-08T12:42:54.665Z,6812
2017-09-08T12:43:57.064Z,6772
2017-09-08T12:44:59.454Z,7208
2017-09-08T12:46:01.847Z,7280
2017-09-08T12:47:04.240Z,7160
2017-09-08T12:48:06.635Z,7328
2017-09-08T12:49:09.031Z,9368
2017-09-08T12:50:11.432Z,9740
2017-09-08T12:51:13.821Z,8616
2017-09-08T12:52:16.221Z,8308
2017-09-08T12:53:18.614Z,8296
2017-09-08T12:54:21.353Z,7840
2017-09-08T12:55:23.743Z,7828
2017-09-08T12:56:26.146Z,7732
2017-09-08T12:57:28.904Z,7884
2017-09-08T12:58:31.311Z,7520
2017-09-08T12:59:33.706Z,7244
2017-09-08T13:00:36.098Z,7032
2017-09-08T13:01:38.493Z,7812
2017-09-08T13:02:40.893Z,8340
2017-09-08T13:03:43.290Z,8872
2017-09-08T13:04:45.692Z,9924
2017-09-08T13:05:48.078Z,9752
2017-09-08T13:06:50.484Z,10644
2017-09-08T13:07:52.867Z,10572
2017-09-08T13:08:55.259Z,10964
2017-09-08T13:09:57.658Z,10028
2017-09-08T13:11:00.054Z,10168
2017-09-08T13:12:02.796Z,10124
2017-09-08T13:13:05.200Z,10624
2017-09-08T13:14:07.592Z,10984
2017-09-08T13:15:09.979Z,11144
2017-09-08T13:16:12.372Z,9724
2017-09-08T13:17:14.769Z,9944
2017-09-08T13:18:17.157Z,10572
2017-09-08T13:19:19.555Z,9184
2017-09-08T13:20:21.954Z,7056
2017-09-08T13:21:24.352Z,7108
2017-09-08T13:22:26.752Z,6272
2017-09-08T13:23:29.149Z,6560
2017-09-08T13:24:31.531Z,4984
2017-09-08T13:25:33.927Z,5324
2017-09-08T13:26:36.324Z,4324
2017-09-08T13:27:38.712Z,3940
2017-09-08T13:28:41.113Z,3588
2017-09-08T13:29:43.503Z,3576
2017-09-08T13:30:45.898Z,3468
2017-09-08T13:31:48.304Z,3528
2017-09-08T13:32:50.690Z,3960
2017-09-08T13:33:53.091Z,6864
2017-09-08T13:34:55.490Z,8424
2017-09-08T13:35:57.885Z,10316
2017-09-08T13:37:00.288Z,8792
2017-09-08T13:38:02.689Z,10280
2017-09-08T13:39:05.077Z,7388
2017-09-08T13:40:07.476Z,7028
2017-09-08T13:41:09.878Z,6800
2017-09-08T13:42:12.266Z,6252
2017-09-08T13:43:14.661Z,5964
2017-09-08T13:44:17.061Z,4540
2017-09-08T13:45:19.453Z,4884
2017-09-08T13:46:21.847Z,4012
2017-09-08T13:47:24.244Z,3900
2017-09-08T13:48:26.647Z,4040
2017-09-08T13:49:29.080Z,4036
2017-09-08T13:50:31.448Z,3776
2017-09-08T13:51:33.841Z,4396
2017-09-08T13:52:36.235Z,4716
2017-09-08T13:53:38.634Z,4556
2017-09-08T13:54:41.026Z,5184
2017-09-08T13:55:43.421Z,5112
2017-09-08T13:56:45.825Z,6188
2017-09-08T13:57:48.215Z,5008
2017-09-08T13:58:50.591Z,4692
2017-09-08T13:59:52.987Z,4260
2017-09-08T14:00:55.382Z,4456
2017-09-08T14:01:57.778Z,3148
2017-09-08T14:03:00.176Z,3400
2017-09-08T14:04:02.571Z,3752
2017-09-08T14:05:04.961Z,4600
2017-09-08T14:06:07.366Z,5332
2017-09-08T14:07:09.764Z,3864
2017-09-08T14:08:12.161Z,3976
2017-09-08T14:09:14.909Z,4484
2017-09-08T14:10:17.300Z,4428
2017-09-08T14:11:19.698Z,3264
2017-09-08T14:12:22.094Z,3420
2017-09-08T14:13:24.486Z,4404
2017-09-08T14:14:26.891Z,4348